sensor_id;sensor_type;location;lat;lon;timestamp;P1;durP1;ratioP1;P2;durP2;ratioP2
47812;SDS011;34221;45.296;9.516;2023-07-13T00:00:13;0.40;;;0.40;;
47812;SDS011;34221;45.296;9.516;2023-07-13T00:00:30;0.40;;;0.30;;
47812;SDS011;34221;45.296;9.516;2023-07-13T00:00:46;0.43;;;0.43;;
47812;SDS011;34221;45.296;9.516;2023-07-13T00:01:01;0.40;;;0.40;;
47812;SDS011;34221;45.296;9.516;2023-07-13T00:01:16;0.38;;;0.38;;
47812;SDS011;34221;45.296;9.516;2023-07-13T00:01:31;0.40;;;0.40;;
47812;SDS011;34221;45.296;9.516;2023-07-13T00:01:47;0.40;;;0.40;;
47812;SDS011;34221;45.296;9.516;2023-07-13T00:02:04;0.40;;;0.30;;
47812;SDS011;34221;45.296;9.516;2023-07-13T00:02:19;0.50;;;0.40;;
47812;SDS011;34221;45.296;9.516;2023-07-13T00:02:34;0.70;;;0.50;;
47812;SDS011;34221;45.296;9.516;2023-07-13T00:02:49;0.40;;;0.40;;
47812;SDS011;34221;45.296;9.516;2023-07-13T00:03:04;0.32;;;0.32;;
47812;SDS011;34221;45.296;9.516;2023-07-13T00:03:19;0.30;;;0.30;;
47812;SDS011;34221;45.296;9.516;2023-07-13T00:03:34;0.38;;;0.38;;
47812;SDS011;34221;45.296;9.516;2023-07-13T00:03:49;0.70;;;0.50;;
47812;SDS011;34221;45.296;9.516;2023-07-13T00:04:04;0.52;;;0.40;;
47812;SDS011;34221;45.296;9.516;2023-07-13T00:04:20;0.38;;;0.38;;
47812;SDS011;34221;45.296;9.516;2023-07-13T00:04:37;0.32;;;0.32;;
47812;SDS011;34221;45.296;9.516;2023-07-13T00:04:52;0.30;;;0.30;;
47812;SDS011;34221;45.296;9.516;2023-07-13T00:05:07;0.30;;;0.30;;
47812;SDS011;34221;45.296;9.516;2023-07-13T00:05:23;0.40;;;0.30;;
47812;SDS011;34221;45.296;9.516;2023-07-13T00:05:38;0.30;;;0.30;;
47812;SDS011;34221;45.296;9.516;2023-07-13T00:05:59;0.30;;;0.30;;
47812;SDS011;34221;45.296;9.516;2023-07-13T00:06:15;0.30;;;0.30;;
47812;SDS011;34221;45.296;9.516;2023-07-13T00:06:30;0.30;;;0.30;;
47812;SDS011;34221;45.296;9.516;2023-07-13T00:06:47;0.30;;;0.30;;
47812;SDS011;34221;45.296;9.516;2023-07-13T00:07:02;0.20;;;0.20;;
47812;SDS011;34221;45.296;9.516;2023-07-13T00:07:17;0.38;;;0.38;;
47812;SDS011;34221;45.296;9.516;2023-07-13T00:07:34;0.47;;;0.40;;
47812;SDS011;34221;45.296;9.516;2023-07-13T00:07:50;0.30;;;0.30;;
47812;SDS011;34221;45.296;9.516;2023-07-13T00:08:07;0.50;;;0.40;;
47812;SDS011;34221;45.296;9.516;2023-07-13T00:08:22;0.43;;;0.40;;
47812;SDS011;34221;45.296;9.516;2023-07-13T00:08:37;0.30;;;0.30;;
47812;SDS011;34221;45.296;9.516;2023-07-13T00:08:52;0.20;;;0.20;;
47812;SDS011;34221;45.296;9.516;2023-07-13T00:09:07;0.60;;;0.38;;
47812;SDS011;34221;45.296;9.516;2023-07-13T00:09:22;0.68;;;0.47;;
47812;SDS011;34221;45.296;9.516;2023-07-13T00:09:37;0.32;;;0.32;;
47812;SDS011;34221;45.296;9.516;2023-07-13T00:09:52;0.30;;;0.30;;
47812;SDS011;34221;45.296;9.516;2023-07-13T00:10:07;0.30;;;0.30;;
47812;SDS011;34221;45.296;9.516;2023-07-13T00:10:23;0.20;;;0.20;;
47812;SDS011;34221;45.296;9.516;2023-07-13T00:10:39;0.22;;;0.22;;
47812;SDS011;34221;45.296;9.516;2023-07-13T00:10:55;0.20;;;0.20;;
47812;SDS011;34221;45.296;9.516;2023-07-13T00:11:10;0.20;;;0.20;;
47812;SDS011;34221;45.296;9.516;2023-07-13T00:11:25;0.30;;;0.30;;
47812;SDS011;34221;45.296;9.516;2023-07-13T00:11:40;0.30;;;0.30;;
47812;SDS011;34221;45.296;9.516;2023-07-13T00:11:57;0.30;;;0.30;;
47812;SDS011;34221;45.296;9.516;2023-07-13T00:12:31;0.28;;;0.28;;
47812;SDS011;34221;45.296;9.516;2023-07-13T00:12:50;0.40;;;0.40;;
47812;SDS011;34221;45.296;9.516;2023-07-13T00:13:09;0.35;;;0.35;;
47812;SDS011;34221;45.296;9.516;2023-07-13T00:13:23;0.30;;;0.30;;
47812;SDS011;34221;45.296;9.516;2023-07-13T00:13:38;0.30;;;0.28;;
47812;SDS011;34221;45.296;9.516;2023-07-13T00:13:54;0.57;;;0.30;;
47812;SDS011;34221;45.296;9.516;2023-07-13T00:14:09;0.65;;;0.32;;
47812;SDS011;34221;45.296;9.516;2023-07-13T00:14:25;0.30;;;0.30;;
47812;SDS011;34221;45.296;9.516;2023-07-13T00:14:42;0.30;;;0.30;;
47812;SDS011;34221;45.296;9.516;2023-07-13T00:14:57;0.30;;;0.30;;
47812;SDS011;34221;45.296;9.516;2023-07-13T00:15:15;0.38;;;0.35;;
47812;SDS011;34221;45.296;9.516;2023-07-13T00:15:37;0.35;;;0.30;;
47812;SDS011;34221;45.296;9.516;2023-07-13T00:15:52;0.32;;;0.30;;
47812;SDS011;34221;45.296;9.516;2023-07-13T00:16:08;0.50;;;0.40;;
47812;SDS011;34221;45.296;9.516;2023-07-13T00:16:25;0.32;;;0.30;;
47812;SDS011;34221;45.296;9.516;2023-07-13T00:16:40;0.30;;;0.30;;
47812;SDS011;34221;45.296;9.516;2023-07-13T00:16:57;0.30;;;0.30;;
47812;SDS011;34221;45.296;9.516;2023-07-13T00:17:14;0.70;;;0.40;;
47812;SDS011;34221;45.296;9.516;2023-07-13T00:17:29;0.73;;;0.38;;
47812;SDS011;34221;45.296;9.516;2023-07-13T00:17:44;0.40;;;0.30;;
47812;SDS011;34221;45.296;9.516;2023-07-13T00:17:59;0.22;;;0.22;;
47812;SDS011;34221;45.296;9.516;2023-07-13T00:18:15;0.57;;;0.30;;
47812;SDS011;34221;45.296;9.516;2023-07-13T00:18:30;0.60;;;0.30;;
47812;SDS011;34221;45.296;9.516;2023-07-13T00:18:45;0.32;;;0.32;;
47812;SDS011;34221;45.296;9.516;2023-07-13T00:19:01;0.40;;;0.40;;
47812;SDS011;34221;45.296;9.516;2023-07-13T00:19:16;0.80;;;0.50;;
47812;SDS011;34221;45.296;9.516;2023-07-13T00:19:32;0.80;;;0.50;;
47812;SDS011;34221;45.296;9.516;2023-07-13T00:19:49;0.30;;;0.30;;
47812;SDS011;34221;45.296;9.516;2023-07-13T00:20:04;0.43;;;0.32;;
47812;SDS011;34221;45.296;9.516;2023-07-13T00:20:22;0.47;;;0.30;;
47812;SDS011;34221;45.296;9.516;2023-07-13T00:20:39;0.47;;;0.30;;
47812;SDS011;34221;45.296;9.516;2023-07-13T00:20:55;0.40;;;0.40;;
47812;SDS011;34221;45.296;9.516;2023-07-13T00:21:19;0.20;;;0.20;;
47812;SDS011;34221;45.296;9.516;2023-07-13T00:21:34;0.25;;;0.25;;
47812;SDS011;34221;45.296;9.516;2023-07-13T00:21:53;0.40;;;0.40;;
47812;SDS011;34221;45.296;9.516;2023-07-13T00:22:10;0.40;;;0.40;;
47812;SDS011;34221;45.296;9.516;2023-07-13T00:22:25;0.38;;;0.38;;
47812;SDS011;34221;45.296;9.516;2023-07-13T00:22:40;0.30;;;0.30;;
47812;SDS011;34221;45.296;9.516;2023-07-13T00:22:55;0.40;;;0.30;;
47812;SDS011;34221;45.296;9.516;2023-07-13T00:23:11;0.30;;;0.30;;
47812;SDS011;34221;45.296;9.516;2023-07-13T00:23:26;0.30;;;0.30;;
47812;SDS011;34221;45.296;9.516;2023-07-13T00:23:41;0.40;;;0.40;;
47812;SDS011;34221;45.296;9.516;2023-07-13T00:23:57;0.50;;;0.40;;
47812;SDS011;34221;45.296;9.516;2023-07-13T00:24:13;0.38;;;0.38;;
47812;SDS011;34221;45.296;9.516;2023-07-13T00:25:10;0.35;;;0.35;;
47812;SDS011;34221;45.296;9.516;2023-07-13T00:25:26;0.30;;;0.30;;
47812;SDS011;34221;45.296;9.516;2023-07-13T00:25:43;0.40;;;0.40;;
47812;SDS011;34221;45.296;9.516;2023-07-13T00:25:59;0.38;;;0.38;;
47812;SDS011;34221;45.296;9.516;2023-07-13T00:26:16;0.25;;;0.25;;
47812;SDS011;34221;45.296;9.516;2023-07-13T00:26:31;0.20;;;0.20;;
47812;SDS011;34221;45.296;9.516;2023-07-13T00:26:47;0.30;;;0.30;;
47812;SDS011;34221;45.296;9.516;2023-07-13T00:27:02;0.30;;;0.30;;
47812;SDS011;34221;45.296;9.516;2023-07-13T00:27:17;0.28;;;0.28;;
47812;SDS011;34221;45.296;9.516;2023-07-13T00:27:34;0.47;;;0.40;;
47812;SDS011;34221;45.296;9.516;2023-07-13T00:27:49;0.57;;;0.43;;
47812;SDS011;34221;45.296;9.516;2023-07-13T00:28:05;0.30;;;0.30;;
47812;SDS011;34221;45.296;9.516;2023-07-13T00:28:20;0.30;;;0.30;;
47812;SDS011;34221;45.296;9.516;2023-07-13T00:28:36;0.45;;;0.35;;
47812;SDS011;34221;45.296;9.516;2023-07-13T00:28:51;0.60;;;0.50;;
47812;SDS011;34221;45.296;9.516;2023-07-13T00:29:06;0.38;;;0.32;;
47812;SDS011;34221;45.296;9.516;2023-07-13T00:29:22;0.30;;;0.30;;
47812;SDS011;34221;45.296;9.516;2023-07-13T00:29:37;0.40;;;0.40;;
47812;SDS011;34221;45.296;9.516;2023-07-13T00:29:52;0.32;;;0.32;;
47812;SDS011;34221;45.296;9.516;2023-07-13T00:30:07;0.43;;;0.40;;
47812;SDS011;34221;45.296;9.516;2023-07-13T00:30:23;0.43;;;0.40;;
47812;SDS011;34221;45.296;9.516;2023-07-13T00:30:57;0.45;;;0.30;;
47812;SDS011;34221;45.296;9.516;2023-07-13T00:31:13;1.00;;;0.30;;
47812;SDS011;34221;45.296;9.516;2023-07-13T00:31:31;1.20;;;0.40;;
47812;SDS011;34221;45.296;9.516;2023-07-13T00:31:46;0.32;;;0.30;;
47812;SDS011;34221;45.296;9.516;2023-07-13T00:32:01;0.30;;;0.30;;
47812;SDS011;34221;45.296;9.516;2023-07-13T00:32:21;0.22;;;0.22;;
47812;SDS011;34221;45.296;9.516;2023-07-13T00:32:36;0.20;;;0.20;;
47812;SDS011;34221;45.296;9.516;2023-07-13T00:32:52;0.20;;;0.20;;
47812;SDS011;34221;45.296;9.516;2023-07-13T00:33:07;0.20;;;0.20;;
47812;SDS011;34221;45.296;9.516;2023-07-13T00:33:23;0.20;;;0.20;;
47812;SDS011;34221;45.296;9.516;2023-07-13T00:33:38;0.20;;;0.20;;
47812;SDS011;34221;45.296;9.516;2023-07-13T00:33:54;0.28;;;0.28;;
47812;SDS011;34221;45.296;9.516;2023-07-13T00:34:09;0.30;;;0.30;;
47812;SDS011;34221;45.296;9.516;2023-07-13T00:34:24;0.30;;;0.30;;
47812;SDS011;34221;45.296;9.516;2023-07-13T00:34:39;0.50;;;0.30;;
47812;SDS011;34221;45.296;9.516;2023-07-13T00:34:54;0.52;;;0.30;;
47812;SDS011;34221;45.296;9.516;2023-07-13T00:35:09;0.20;;;0.20;;
47812;SDS011;34221;45.296;9.516;2023-07-13T00:35:27;0.50;;;0.30;;
47812;SDS011;34221;45.296;9.516;2023-07-13T00:35:45;0.30;;;0.30;;
47812;SDS011;34221;45.296;9.516;2023-07-13T00:36:00;0.40;;;0.30;;
47812;SDS011;34221;45.296;9.516;2023-07-13T00:36:16;0.60;;;0.40;;
47812;SDS011;34221;45.296;9.516;2023-07-13T00:36:31;0.63;;;0.50;;
47812;SDS011;34221;45.296;9.516;2023-07-13T00:36:46;0.65;;;0.50;;
47812;SDS011;34221;45.296;9.516;2023-07-13T00:37:01;0.52;;;0.32;;
47812;SDS011;34221;45.296;9.516;2023-07-13T00:37:16;0.60;;;0.40;;
47812;SDS011;34221;45.296;9.516;2023-07-13T00:37:31;0.80;;;0.40;;
47812;SDS011;34221;45.296;9.516;2023-07-13T00:37:47;0.75;;;0.43;;
47812;SDS011;34221;45.296;9.516;2023-07-13T00:38:02;0.30;;;0.30;;
47812;SDS011;34221;45.296;9.516;2023-07-13T00:38:17;0.28;;;0.28;;
47812;SDS011;34221;45.296;9.516;2023-07-13T00:38:32;0.40;;;0.40;;
47812;SDS011;34221;45.296;9.516;2023-07-13T00:38:47;0.40;;;0.40;;
47812;SDS011;34221;45.296;9.516;2023-07-13T00:39:02;0.30;;;0.30;;
47812;SDS011;34221;45.296;9.516;2023-07-13T00:39:19;0.30;;;0.30;;
47812;SDS011;34221;45.296;9.516;2023-07-13T00:39:35;0.30;;;0.30;;
47812;SDS011;34221;45.296;9.516;2023-07-13T00:39:50;0.55;;;0.38;;
47812;SDS011;34221;45.296;9.516;2023-07-13T00:40:06;0.50;;;0.30;;
47812;SDS011;34221;45.296;9.516;2023-07-13T00:40:22;0.93;;;0.30;;
47812;SDS011;34221;45.296;9.516;2023-07-13T00:40:37;0.98;;;0.30;;
47812;SDS011;34221;45.296;9.516;2023-07-13T00:40:52;0.35;;;0.35;;
47812;SDS011;34221;45.296;9.516;2023-07-13T00:41:07;0.38;;;0.35;;
47812;SDS011;34221;45.296;9.516;2023-07-13T00:41:24;0.40;;;0.30;;
47812;SDS011;34221;45.296;9.516;2023-07-13T00:41:39;0.22;;;0.22;;
47812;SDS011;34221;45.296;9.516;2023-07-13T00:41:54;0.20;;;0.20;;
47812;SDS011;34221;45.296;9.516;2023-07-13T00:42:09;0.20;;;0.20;;
47812;SDS011;34221;45.296;9.516;2023-07-13T00:42:25;0.20;;;0.20;;
47812;SDS011;34221;45.296;9.516;2023-07-13T00:42:40;0.47;;;0.40;;
47812;SDS011;34221;45.296;9.516;2023-07-13T00:42:57;0.90;;;0.50;;
47812;SDS011;34221;45.296;9.516;2023-07-13T00:43:15;0.77;;;0.40;;
47812;SDS011;34221;45.296;9.516;2023-07-13T00:43:35;0.43;;;0.40;;
47812;SDS011;34221;45.296;9.516;2023-07-13T00:43:50;0.40;;;0.40;;
47812;SDS011;34221;45.296;9.516;2023-07-13T00:44:08;0.38;;;0.38;;
47812;SDS011;34221;45.296;9.516;2023-07-13T00:44:28;0.30;;;0.30;;
47812;SDS011;34221;45.296;9.516;2023-07-13T00:45:03;0.30;;;0.30;;
47812;SDS011;34221;45.296;9.516;2023-07-13T00:46:24;0.40;;;0.30;;
47812;SDS011;34221;45.296;9.516;2023-07-13T00:46:45;0.38;;;0.30;;
47812;SDS011;34221;45.296;9.516;2023-07-13T00:47:00;0.40;;;0.40;;
47812;SDS011;34221;45.296;9.516;2023-07-13T00:47:15;0.40;;;0.40;;
47812;SDS011;34221;45.296;9.516;2023-07-13T00:47:30;0.30;;;0.30;;
47812;SDS011;34221;45.296;9.516;2023-07-13T00:47:45;0.20;;;0.20;;
47812;SDS011;34221;45.296;9.516;2023-07-13T00:48:00;0.32;;;0.32;;
47812;SDS011;34221;45.296;9.516;2023-07-13T00:48:16;0.68;;;0.40;;
47812;SDS011;34221;45.296;9.516;2023-07-13T00:48:53;0.47;;;0.40;;
47812;SDS011;34221;45.296;9.516;2023-07-13T00:49:13;0.47;;;0.40;;
47812;SDS011;34221;45.296;9.516;2023-07-13T00:49:36;0.30;;;0.30;;
47812;SDS011;34221;45.296;9.516;2023-07-13T00:49:51;0.63;;;0.43;;
47812;SDS011;34221;45.296;9.516;2023-07-13T00:50:07;0.80;;;0.50;;
47812;SDS011;34221;45.296;9.516;2023-07-13T00:50:26;0.77;;;0.40;;
47812;SDS011;34221;45.296;9.516;2023-07-13T00:50:41;0.57;;;0.30;;
47812;SDS011;34221;45.296;9.516;2023-07-13T00:50:58;0.30;;;0.30;;
47812;SDS011;34221;45.296;9.516;2023-07-13T00:51:45;0.32;;;0.32;;
47812;SDS011;34221;45.296;9.516;2023-07-13T00:52:14;0.68;;;0.38;;
47812;SDS011;34221;45.296;9.516;2023-07-13T00:52:31;0.60;;;0.30;;
47812;SDS011;34221;45.296;9.516;2023-07-13T00:52:50;0.30;;;0.30;;
47812;SDS011;34221;45.296;9.516;2023-07-13T00:53:08;0.30;;;0.30;;
47812;SDS011;34221;45.296;9.516;2023-07-13T00:53:24;0.30;;;0.30;;
47812;SDS011;34221;45.296;9.516;2023-07-13T00:53:43;0.28;;;0.28;;
47812;SDS011;34221;45.296;9.516;2023-07-13T00:54:00;0.40;;;0.20;;
47812;SDS011;34221;45.296;9.516;2023-07-13T00:54:22;0.45;;;0.22;;
47812;SDS011;34221;45.296;9.516;2023-07-13T00:54:50;0.40;;;0.30;;
47812;SDS011;34221;45.296;9.516;2023-07-13T00:55:05;1.73;;;0.65;;
47812;SDS011;34221;45.296;9.516;2023-07-13T00:55:23;4.68;;;0.98;;
47812;SDS011;34221;45.296;9.516;2023-07-13T00:55:38;3.42;;;0.70;;
47812;SDS011;34221;45.296;9.516;2023-07-13T00:55:54;1.77;;;0.80;;
47812;SDS011;34221;45.296;9.516;2023-07-13T00:56:10;2.08;;;0.77;;
47812;SDS011;34221;45.296;9.516;2023-07-13T00:56:26;1.70;;;0.63;;
47812;SDS011;34221;45.296;9.516;2023-07-13T00:56:43;1.67;;;0.60;;
47812;SDS011;34221;45.296;9.516;2023-07-13T00:57:00;0.63;;;0.52;;
47812;SDS011;34221;45.296;9.516;2023-07-13T00:57:19;0.43;;;0.40;;
47812;SDS011;34221;45.296;9.516;2023-07-13T00:57:35;1.40;;;0.50;;
47812;SDS011;34221;45.296;9.516;2023-07-13T00:58:11;0.47;;;0.43;;
47812;SDS011;34221;45.296;9.516;2023-07-13T00:58:26;0.63;;;0.50;;
47812;SDS011;34221;45.296;9.516;2023-07-13T00:58:41;0.80;;;0.50;;
47812;SDS011;34221;45.296;9.516;2023-07-13T00:58:57;0.55;;;0.40;;
47812;SDS011;34221;45.296;9.516;2023-07-13T00:59:14;0.45;;;0.40;;
47812;SDS011;34221;45.296;9.516;2023-07-13T00:59:31;0.45;;;0.40;;
47812;SDS011;34221;45.296;9.516;2023-07-13T00:59:48;0.60;;;0.40;;
47812;SDS011;34221;45.296;9.516;2023-07-13T01:00:10;0.52;;;0.50;;
47812;SDS011;34221;45.296;9.516;2023-07-13T01:00:26;0.45;;;0.45;;
47812;SDS011;34221;45.296;9.516;2023-07-13T01:00:43;0.75;;;0.50;;
47812;SDS011;34221;45.296;9.516;2023-07-13T01:01:01;0.43;;;0.38;;
47812;SDS011;34221;45.296;9.516;2023-07-13T01:01:16;0.40;;;0.40;;
47812;SDS011;34221;45.296;9.516;2023-07-13T01:01:32;0.43;;;0.43;;
47812;SDS011;34221;45.296;9.516;2023-07-13T01:01:47;0.60;;;0.50;;
47812;SDS011;34221;45.296;9.516;2023-07-13T01:02:03;0.80;;;0.60;;
47812;SDS011;34221;45.296;9.516;2023-07-13T01:02:18;0.47;;;0.40;;
47812;SDS011;34221;45.296;9.516;2023-07-13T01:02:37;0.28;;;0.28;;
47812;SDS011;34221;45.296;9.516;2023-07-13T01:02:54;0.25;;;0.25;;
47812;SDS011;34221;45.296;9.516;2023-07-13T01:03:09;0.30;;;0.30;;
47812;SDS011;34221;45.296;9.516;2023-07-13T01:03:24;0.30;;;0.30;;
47812;SDS011;34221;45.296;9.516;2023-07-13T01:03:39;0.38;;;0.38;;
47812;SDS011;34221;45.296;9.516;2023-07-13T01:03:55;0.70;;;0.60;;
47812;SDS011;34221;45.296;9.516;2023-07-13T01:04:11;0.55;;;0.50;;
47812;SDS011;34221;45.296;9.516;2023-07-13T01:04:27;0.32;;;0.32;;
47812;SDS011;34221;45.296;9.516;2023-07-13T01:04:43;0.40;;;0.40;;
47812;SDS011;34221;45.296;9.516;2023-07-13T01:04:59;0.77;;;0.60;;
47812;SDS011;34221;45.296;9.516;2023-07-13T01:05:17;0.67;;;0.60;;
47812;SDS011;34221;45.296;9.516;2023-07-13T01:05:35;0.60;;;0.47;;
47812;SDS011;34221;45.296;9.516;2023-07-13T01:05:51;0.57;;;0.40;;
47812;SDS011;34221;45.296;9.516;2023-07-13T01:06:08;0.50;;;0.40;;
47812;SDS011;34221;45.296;9.516;2023-07-13T01:06:23;0.52;;;0.45;;
47812;SDS011;34221;45.296;9.516;2023-07-13T01:06:39;0.60;;;0.40;;
47812;SDS011;34221;45.296;9.516;2023-07-13T01:06:55;1.00;;;0.50;;
47812;SDS011;34221;45.296;9.516;2023-07-13T01:07:11;0.73;;;0.50;;
47812;SDS011;34221;45.296;9.516;2023-07-13T01:07:27;0.40;;;0.40;;
47812;SDS011;34221;45.296;9.516;2023-07-13T01:08:03;0.90;;;0.47;;
47812;SDS011;34221;45.296;9.516;2023-07-13T01:08:21;0.35;;;0.35;;
47812;SDS011;34221;45.296;9.516;2023-07-13T01:08:36;0.30;;;0.30;;
47812;SDS011;34221;45.296;9.516;2023-07-13T01:08:51;0.50;;;0.40;;
47812;SDS011;34221;45.296;9.516;2023-07-13T01:09:07;0.50;;;0.40;;
47812;SDS011;34221;45.296;9.516;2023-07-13T01:09:23;0.95;;;0.50;;
47812;SDS011;34221;45.296;9.516;2023-07-13T01:09:39;0.90;;;0.40;;
47812;SDS011;34221;45.296;9.516;2023-07-13T01:09:55;0.57;;;0.30;;
47812;SDS011;34221;45.296;9.516;2023-07-13T01:10:10;0.70;;;0.40;;
47812;SDS011;34221;45.296;9.516;2023-07-13T01:10:26;0.88;;;0.50;;
47812;SDS011;34221;45.296;9.516;2023-07-13T01:10:50;0.65;;;0.40;;
47812;SDS011;34221;45.296;9.516;2023-07-13T01:11:18;0.75;;;0.50;;
47812;SDS011;34221;45.296;9.516;2023-07-13T01:11:35;0.40;;;0.40;;
47812;SDS011;34221;45.296;9.516;2023-07-13T01:11:51;0.60;;;0.40;;
47812;SDS011;34221;45.296;9.516;2023-07-13T01:12:06;0.80;;;0.60;;
47812;SDS011;34221;45.296;9.516;2023-07-13T01:12:25;0.65;;;0.60;;
47812;SDS011;34221;45.296;9.516;2023-07-13T01:12:41;0.55;;;0.55;;
47812;SDS011;34221;45.296;9.516;2023-07-13T01:12:56;0.73;;;0.60;;
47812;SDS011;34221;45.296;9.516;2023-07-13T01:13:11;0.65;;;0.50;;
47812;SDS011;34221;45.296;9.516;2023-07-13T01:13:26;0.40;;;0.40;;
47812;SDS011;34221;45.296;9.516;2023-07-13T01:13:41;0.40;;;0.40;;
47812;SDS011;34221;45.296;9.516;2023-07-13T01:13:57;0.40;;;0.40;;
47812;SDS011;34221;45.296;9.516;2023-07-13T01:14:12;0.40;;;0.40;;
47812;SDS011;34221;45.296;9.516;2023-07-13T01:14:28;0.40;;;0.40;;
47812;SDS011;34221;45.296;9.516;2023-07-13T01:14:43;0.50;;;0.40;;
47812;SDS011;34221;45.296;9.516;2023-07-13T01:14:58;0.70;;;0.50;;
47812;SDS011;34221;45.296;9.516;2023-07-13T01:15:53;0.50;;;0.40;;
47812;SDS011;34221;45.296;9.516;2023-07-13T01:16:27;0.75;;;0.47;;
47812;SDS011;34221;45.296;9.516;2023-07-13T01:16:46;1.05;;;0.60;;
47812;SDS011;34221;45.296;9.516;2023-07-13T01:17:02;0.88;;;0.50;;
47812;SDS011;34221;45.296;9.516;2023-07-13T01:17:18;0.57;;;0.40;;
47812;SDS011;34221;45.296;9.516;2023-07-13T01:17:33;0.40;;;0.40;;
47812;SDS011;34221;45.296;9.516;2023-07-13T01:17:48;0.30;;;0.30;;
47812;SDS011;34221;45.296;9.516;2023-07-13T01:18:13;0.32;;;0.32;;
47812;SDS011;34221;45.296;9.516;2023-07-13T01:18:42;1.58;;;0.40;;
47812;SDS011;34221;45.296;9.516;2023-07-13T01:18:57;1.30;;;0.50;;
47812;SDS011;34221;45.296;9.516;2023-07-13T01:19:29;0.95;;;0.43;;
47812;SDS011;34221;45.296;9.516;2023-07-13T01:19:57;0.90;;;0.50;;
47812;SDS011;34221;45.296;9.516;2023-07-13T01:20:12;0.60;;;0.40;;
47812;SDS011;34221;45.296;9.516;2023-07-13T01:20:27;0.50;;;0.40;;
47812;SDS011;34221;45.296;9.516;2023-07-13T01:20:55;0.60;;;0.50;;
47812;SDS011;34221;45.296;9.516;2023-07-13T01:21:15;0.30;;;0.30;;
47812;SDS011;34221;45.296;9.516;2023-07-13T01:21:31;0.30;;;0.30;;
47812;SDS011;34221;45.296;9.516;2023-07-13T01:21:49;0.30;;;0.30;;
47812;SDS011;34221;45.296;9.516;2023-07-13T01:22:08;0.60;;;0.50;;
47812;SDS011;34221;45.296;9.516;2023-07-13T01:22:30;0.50;;;0.50;;
47812;SDS011;34221;45.296;9.516;2023-07-13T01:22:46;0.50;;;0.50;;
47812;SDS011;34221;45.296;9.516;2023-07-13T01:23:05;0.47;;;0.40;;
47812;SDS011;34221;45.296;9.516;2023-07-13T01:23:23;0.60;;;0.50;;
47812;SDS011;34221;45.296;9.516;2023-07-13T01:23:39;0.77;;;0.63;;
47812;SDS011;34221;45.296;9.516;2023-07-13T01:23:54;0.75;;;0.65;;
47812;SDS011;34221;45.296;9.516;2023-07-13T01:24:09;0.77;;;0.68;;
47812;SDS011;34221;45.296;9.516;2023-07-13T01:24:24;0.57;;;0.52;;
47812;SDS011;34221;45.296;9.516;2023-07-13T01:24:40;0.52;;;0.40;;
47812;SDS011;34221;45.296;9.516;2023-07-13T01:24:57;0.73;;;0.40;;
47812;SDS011;34221;45.296;9.516;2023-07-13T01:25:12;0.70;;;0.45;;
47812;SDS011;34221;45.296;9.516;2023-07-13T01:25:27;0.40;;;0.40;;
47812;SDS011;34221;45.296;9.516;2023-07-13T01:25:43;0.30;;;0.30;;
47812;SDS011;34221;45.296;9.516;2023-07-13T01:25:59;0.60;;;0.40;;
47812;SDS011;34221;45.296;9.516;2023-07-13T01:26:14;0.88;;;0.50;;
47812;SDS011;34221;45.296;9.516;2023-07-13T01:26:29;0.70;;;0.43;;
47812;SDS011;34221;45.296;9.516;2023-07-13T01:26:44;0.75;;;0.45;;
47812;SDS011;34221;45.296;9.516;2023-07-13T01:26:59;0.70;;;0.50;;
47812;SDS011;34221;45.296;9.516;2023-07-13T01:27:15;0.40;;;0.40;;
47812;SDS011;34221;45.296;9.516;2023-07-13T01:27:34;0.40;;;0.40;;
47812;SDS011;34221;45.296;9.516;2023-07-13T01:27:50;0.55;;;0.50;;
47812;SDS011;34221;45.296;9.516;2023-07-13T01:28:06;0.52;;;0.50;;
47812;SDS011;34221;45.296;9.516;2023-07-13T01:28:27;0.43;;;0.43;;
47812;SDS011;34221;45.296;9.516;2023-07-13T01:28:43;0.38;;;0.35;;
47812;SDS011;34221;45.296;9.516;2023-07-13T01:28:58;0.40;;;0.40;;
47812;SDS011;34221;45.296;9.516;2023-07-13T01:29:13;0.40;;;0.40;;
47812;SDS011;34221;45.296;9.516;2023-07-13T01:29:27;0.80;;;0.55;;
47812;SDS011;34221;45.296;9.516;2023-07-13T01:29:44;0.70;;;0.50;;
47812;SDS011;34221;45.296;9.516;2023-07-13T01:30:01;0.40;;;0.40;;
47812;SDS011;34221;45.296;9.516;2023-07-13T01:30:18;0.50;;;0.50;;
47812;SDS011;34221;45.296;9.516;2023-07-13T01:30:33;0.40;;;0.40;;
47812;SDS011;34221;45.296;9.516;2023-07-13T01:30:50;0.45;;;0.40;;
47812;SDS011;34221;45.296;9.516;2023-07-13T01:31:05;0.50;;;0.30;;
47812;SDS011;34221;45.296;9.516;2023-07-13T01:31:20;0.32;;;0.30;;
47812;SDS011;34221;45.296;9.516;2023-07-13T01:31:35;0.35;;;0.30;;
47812;SDS011;34221;45.296;9.516;2023-07-13T01:31:51;0.40;;;0.32;;
47812;SDS011;34221;45.296;9.516;2023-07-13T01:32:06;0.55;;;0.40;;
47812;SDS011;34221;45.296;9.516;2023-07-13T01:32:26;0.40;;;0.40;;
47812;SDS011;34221;45.296;9.516;2023-07-13T01:32:43;0.50;;;0.50;;
47812;SDS011;34221;45.296;9.516;2023-07-13T01:32:58;0.55;;;0.47;;
47812;SDS011;34221;45.296;9.516;2023-07-13T01:33:15;0.40;;;0.40;;
47812;SDS011;34221;45.296;9.516;2023-07-13T01:33:32;0.60;;;0.50;;
47812;SDS011;34221;45.296;9.516;2023-07-13T01:33:48;1.27;;;0.50;;
47812;SDS011;34221;45.296;9.516;2023-07-13T01:34:03;0.75;;;0.40;;
47812;SDS011;34221;45.296;9.516;2023-07-13T01:34:19;0.50;;;0.50;;
47812;SDS011;34221;45.296;9.516;2023-07-13T01:34:34;0.60;;;0.50;;
47812;SDS011;34221;45.296;9.516;2023-07-13T01:34:52;0.98;;;0.50;;
47812;SDS011;34221;45.296;9.516;2023-07-13T01:35:08;0.90;;;0.40;;
47812;SDS011;34221;45.296;9.516;2023-07-13T01:35:24;0.63;;;0.40;;
47812;SDS011;34221;45.296;9.516;2023-07-13T01:35:41;0.40;;;0.40;;
47812;SDS011;34221;45.296;9.516;2023-07-13T01:35:56;0.68;;;0.50;;
47812;SDS011;34221;45.296;9.516;2023-07-13T01:36:11;0.80;;;0.52;;
47812;SDS011;34221;45.296;9.516;2023-07-13T01:36:26;0.93;;;0.60;;
47812;SDS011;34221;45.296;9.516;2023-07-13T01:36:41;0.95;;;0.57;;
47812;SDS011;34221;45.296;9.516;2023-07-13T01:36:56;0.90;;;0.60;;
47812;SDS011;34221;45.296;9.516;2023-07-13T01:37:11;0.57;;;0.52;;
47812;SDS011;34221;45.296;9.516;2023-07-13T01:37:26;0.60;;;0.40;;
47812;SDS011;34221;45.296;9.516;2023-07-13T01:37:41;0.57;;;0.40;;
47812;SDS011;34221;45.296;9.516;2023-07-13T01:37:59;0.73;;;0.47;;
47812;SDS011;34221;45.296;9.516;2023-07-13T01:38:18;0.77;;;0.50;;
47812;SDS011;34221;45.296;9.516;2023-07-13T01:38:35;0.43;;;0.40;;
47812;SDS011;34221;45.296;9.516;2023-07-13T01:38:51;0.45;;;0.45;;
47812;SDS011;34221;45.296;9.516;2023-07-13T01:39:06;0.70;;;0.60;;
47812;SDS011;34221;45.296;9.516;2023-07-13T01:39:42;0.30;;;0.30;;
47812;SDS011;34221;45.296;9.516;2023-07-13T01:39:57;0.40;;;0.40;;
47812;SDS011;34221;45.296;9.516;2023-07-13T01:40:12;0.47;;;0.40;;
47812;SDS011;34221;45.296;9.516;2023-07-13T01:41:02;0.40;;;0.40;;
47812;SDS011;34221;45.296;9.516;2023-07-13T01:41:17;0.40;;;0.40;;
47812;SDS011;34221;45.296;9.516;2023-07-13T01:41:34;0.43;;;0.43;;
47812;SDS011;34221;45.296;9.516;2023-07-13T01:41:49;0.40;;;0.40;;
47812;SDS011;34221;45.296;9.516;2023-07-13T01:42:06;0.40;;;0.40;;
47812;SDS011;34221;45.296;9.516;2023-07-13T01:42:22;0.30;;;0.30;;
47812;SDS011;34221;45.296;9.516;2023-07-13T01:42:36;0.47;;;0.40;;
47812;SDS011;34221;45.296;9.516;2023-07-13T01:42:52;0.60;;;0.50;;
47812;SDS011;34221;45.296;9.516;2023-07-13T01:43:08;0.90;;;0.55;;
47812;SDS011;34221;45.296;9.516;2023-07-13T01:43:23;0.90;;;0.60;;
47812;SDS011;34221;45.296;9.516;2023-07-13T01:43:38;0.40;;;0.37;;
47812;SDS011;34221;45.296;9.516;2023-07-13T01:43:55;0.40;;;0.40;;
47812;SDS011;34221;45.296;9.516;2023-07-13T01:44:10;0.40;;;0.40;;
47812;SDS011;34221;45.296;9.516;2023-07-13T01:44:25;0.30;;;0.30;;
47812;SDS011;34221;45.296;9.516;2023-07-13T01:44:40;0.50;;;0.32;;
47812;SDS011;34221;45.296;9.516;2023-07-13T01:44:56;0.90;;;0.50;;